sensor_id;sensor_type;location;lat;lon;timestamp;P1;P2;P0
76330;PMS7003;65148;51.912;15.570;2023-05-10T00:08:28;10;10;8
76330;PMS7003;65148;51.912;15.570;2023-05-10T00:23:29;12;11;9
76330;PMS7003;65148;51.912;15.570;2023-05-10T00:38:32;12;11;9
76330;PMS7003;65148;51.912;15.570;2023-05-10T00:53:51;11;11;9
76330;PMS7003;65148;51.912;15.570;2023-05-10T01:08:53;15;12;9
76330;PMS7003;65148;51.912;15.570;2023-05-10T01:39:32;13;12;10
76330;PMS7003;65148;51.912;15.570;2023-05-10T01:54:44;14;13;10
76330;PMS7003;65148;51.912;15.570;2023-05-10T02:09:51;14;11;9
76330;PMS7003;65148;51.912;15.570;2023-05-10T02:25:11;17;14;10
76330;PMS7003;65148;51.912;15.570;2023-05-10T02:40:16;12;11;8
76330;PMS7003;65148;51.912;15.570;2023-05-10T02:55:19;15;12;10
76330;PMS7003;65148;51.912;15.570;2023-05-10T03:11:01;13;12;10
76330;PMS7003;65148;51.912;15.570;2023-05-10T03:26:07;13;13;10
76330;PMS7003;65148;51.912;15.570;2023-05-10T03:41:11;13;13;11
76330;PMS7003;65148;51.912;15.570;2023-05-10T03:56:33;17;14;10
76330;PMS7003;65148;51.912;15.570;2023-05-10T04:11:35;12;12;10
76330;PMS7003;65148;51.912;15.570;2023-05-10T04:26:37;15;13;10
76330;PMS7003;65148;51.912;15.570;2023-05-10T04:41:39;14;12;10
76330;PMS7003;65148;51.912;15.570;2023-05-10T04:56:57;12;11;9
76330;PMS7003;65148;51.912;15.570;2023-05-10T05:11:59;14;11;8
76330;PMS7003;65148;51.912;15.570;2023-05-10T05:27:01;10;9;7
76330;PMS7003;65148;51.912;15.570;2023-05-10T05:42:05;10;10;8
76330;PMS7003;65148;51.912;15.570;2023-05-10T05:57:22;10;9;7
76330;PMS7003;65148;51.912;15.570;2023-05-10T06:12:24;11;10;8
76330;PMS7003;65148;51.912;15.570;2023-05-10T06:27:26;8;6;5
76330;PMS7003;65148;51.912;15.570;2023-05-10T06:42:27;7;7;6
76330;PMS7003;65148;51.912;15.570;2023-05-10T06:57:46;7;7;6
76330;PMS7003;65148;51.912;15.570;2023-05-10T07:12:48;6;6;5
76330;PMS7003;65148;51.912;15.570;2023-05-10T07:27:51;8;7;5
76330;PMS7003;65148;51.912;15.570;2023-05-10T07:42:56;7;7;6
76330;PMS7003;65148;51.912;15.570;2023-05-10T07:58:12;8;8;7
76330;PMS7003;65148;51.912;15.570;2023-05-10T08:13:14;9;6;5
76330;PMS7003;65148;51.912;15.570;2023-05-10T08:28:16;7;7;6
76330;PMS7003;65148;51.912;15.570;2023-05-10T08:43:18;8;8;7
76330;PMS7003;65148;51.912;15.570;2023-05-10T08:58:35;7;6;5
76330;PMS7003;65148;51.912;15.570;2023-05-10T09:13:38;6;6;5
76330;PMS7003;65148;51.912;15.570;2023-05-10T09:30:36;4;4;4
76330;PMS7003;65148;51.912;15.570;2023-05-10T09:45:40;3;2;2
76330;PMS7003;65148;51.912;15.570;2023-05-10T10:00:43;6;6;5
76330;PMS7003;65148;51.912;15.570;2023-05-10T10:16:04;6;6;5
76330;PMS7003;65148;51.912;15.570;2023-05-10T10:31:17;5;5;4
76330;PMS7003;65148;51.912;15.570;2023-05-10T10:46:19;8;6;5
76330;PMS7003;65148;51.912;15.570;2023-05-10T11:01:42;5;5;5
76330;PMS7003;65148;51.912;15.570;2023-05-10T11:16:45;5;5;4
76330;PMS7003;65148;51.912;15.570;2023-05-10T11:31:48;7;6;5
76330;PMS7003;65148;51.912;15.570;2023-05-10T11:46:51;9;9;7
76330;PMS7003;65148;51.912;15.570;2023-05-10T12:02:05;7;7;6
76330;PMS7003;65148;51.912;15.570;2023-05-10T12:17:11;6;6;4
76330;PMS7003;65148;51.912;15.570;2023-05-10T12:32:13;6;6;5
76330;PMS7003;65148;51.912;15.570;2023-05-10T12:47:15;5;5;4
76330;PMS7003;65148;51.912;15.570;2023-05-10T13:02:29;4;4;3
76330;PMS7003;65148;51.912;15.570;2023-05-10T13:17:32;6;6;5
76330;PMS7003;65148;51.912;15.570;2023-05-10T13:32:34;4;4;3
76330;PMS7003;65148;51.912;15.570;2023-05-10T13:47:37;4;3;3
76330;PMS7003;65148;51.912;15.570;2023-05-10T14:02:51;3;3;2
76330;PMS7003;65148;51.912;15.570;2023-05-10T14:17:53;3;3;3
76330;PMS7003;65148;51.912;15.570;2023-05-10T14:32:56;5;4;4
76330;PMS7003;65148;51.912;15.570;2023-05-10T14:48:01;3;2;2
76330;PMS7003;65148;51.912;15.570;2023-05-10T15:03:17;3;3;3
76330;PMS7003;65148;51.912;15.570;2023-05-10T15:18:19;2;2;2
76330;PMS7003;65148;51.912;15.570;2023-05-10T15:33:21;3;3;3
76330;PMS7003;65148;51.912;15.570;2023-05-10T15:48:23;5;5;5
76330;PMS7003;65148;51.912;15.570;2023-05-10T16:03:38;5;5;4
76330;PMS7003;65148;51.912;15.570;2023-05-10T16:18:41;7;7;5
76330;PMS7003;65148;51.912;15.570;2023-05-10T16:33:42;5;4;4
76330;PMS7003;65148;51.912;15.570;2023-05-10T16:48:45;4;4;3
76330;PMS7003;65148;51.912;15.570;2023-05-10T17:04:00;5;4;4
76330;PMS7003;65148;51.912;15.570;2023-05-10T17:19:05;3;3;3
76330;PMS7003;65148;51.912;15.570;2023-05-10T17:34:09;5;5;4
76330;PMS7003;65148;51.912;15.570;2023-05-10T17:49:39;4;3;3
76330;PMS7003;65148;51.912;15.570;2023-05-10T18:04:41;6;5;5
76330;PMS7003;65148;51.912;15.570;2023-05-10T18:19:43;17;15;10
76330;PMS7003;65148;51.912;15.570;2023-05-10T18:34:45;18;16;12
76330;PMS7003;65148;51.912;15.570;2023-05-10T18:50:02;9;8;7
76330;PMS7003;65148;51.912;15.570;2023-05-10T19:05:07;8;8;6
76330;PMS7003;65148;51.912;15.570;2023-05-10T19:20:10;12;11;9
76330;PMS7003;65148;51.912;15.570;2023-05-10T19:35:11;18;16;10
76330;PMS7003;65148;51.912;15.570;2023-05-10T19:50:25;10;10;8
76330;PMS7003;65148;51.912;15.570;2023-05-10T20:05:27;12;10;8
76330;PMS7003;65148;51.912;15.570;2023-05-10T20:20:29;12;10;9
76330;PMS7003;65148;51.912;15.570;2023-05-10T20:35:31;7;6;5
76330;PMS7003;65148;51.912;15.570;2023-05-10T20:50:48;12;11;8
76330;PMS7003;65148;51.912;15.570;2023-05-10T21:05:51;17;11;10
76330;PMS7003;65148;51.912;15.570;2023-05-10T21:20:53;15;13;10
76330;PMS7003;65148;51.912;15.570;2023-05-10T21:35:55;21;17;13
76330;PMS7003;65148;51.912;15.570;2023-05-10T21:51:13;16;16;11
76330;PMS7003;65148;51.912;15.570;2023-05-10T22:06:15;14;13;10
76330;PMS7003;65148;51.912;15.570;2023-05-10T22:21:16;13;11;8
76330;PMS7003;65148;51.912;15.570;2023-05-10T22:36:18;16;15;13
76330;PMS7003;65148;51.912;15.570;2023-05-10T22:51:36;12;11;9
76330;PMS7003;65148;51.912;15.570;2023-05-10T23:06:38;17;16;12
76330;PMS7003;65148;51.912;15.570;2023-05-10T23:21:40;15;14;10
76330;PMS7003;65148;51.912;15.570;2023-05-10T23:36:42;16;13;10
76330;PMS7003;65148;51.912;15.570;2023-05-10T23:52:01;15;14;11
